sensor_id;sensor_type;location;lat;lon;timestamp;pressure;altitude;pressure_sealevel;temperature;humidity
65758;BME280;52495;52.208;5.158;2022-10-23T00:01:38;101348.16;;;13.43;92.28
65758;BME280;52495;52.208;5.158;2022-10-23T00:04:06;101349.09;;;13.40;92.19
65758;BME280;52495;52.208;5.158;2022-10-23T00:06:33;101339.59;;;13.38;92.10
65758;BME280;52495;52.208;5.158;2022-10-23T00:09:00;101335.25;;;13.40;92.34
65758;BME280;52495;52.208;5.158;2022-10-23T00:11:33;101334.47;;;13.34;92.51
65758;BME280;52495;52.208;5.158;2022-10-23T00:14:02;101339.66;;;13.34;92.29
65758;BME280;52495;52.208;5.158;2022-10-23T00:16:33;101350.16;;;13.30;92.11
65758;BME280;52495;52.208;5.158;2022-10-23T00:19:00;101345.84;;;13.29;92.45
65758;BME280;52495;52.208;5.158;2022-10-23T00:21:26;101348.38;;;13.30;92.35
65758;BME280;52495;52.208;5.158;2022-10-23T00:23:53;101356.28;;;13.26;92.84
65758;BME280;52495;52.208;5.158;2022-10-23T00:26:20;101356.28;;;13.24;92.77
65758;BME280;52495;52.208;5.158;2022-10-23T00:28:47;101351.03;;;13.27;92.06
65758;BME280;52495;52.208;5.158;2022-10-23T00:31:14;101345.13;;;13.20;92.31
65758;BME280;52495;52.208;5.158;2022-10-23T00:33:43;101337.34;;;13.22;91.66
65758;BME280;52495;52.208;5.158;2022-10-23T00:36:10;101338.34;;;13.15;92.58
65758;BME280;52495;52.208;5.158;2022-10-23T00:38:37;101339.22;;;13.14;93.22
65758;BME280;52495;52.208;5.158;2022-10-23T00:41:04;101335.75;;;13.15;93.13
65758;BME280;52495;52.208;5.158;2022-10-23T00:43:31;101333.97;;;13.15;93.19
65758;BME280;52495;52.208;5.158;2022-10-23T00:45:58;101339.22;;;13.14;93.56
65758;BME280;52495;52.208;5.158;2022-10-23T00:48:26;101340.91;;;13.15;93.68
65758;BME280;52495;52.208;5.158;2022-10-23T00:50:54;101334.91;;;13.14;93.42
65758;BME280;52495;52.208;5.158;2022-10-23T00:53:22;101332.31;;;13.13;93.83
65758;BME280;52495;52.208;5.158;2022-10-23T00:55:50;101325.41;;;13.13;93.86
65758;BME280;52495;52.208;5.158;2022-10-23T00:58:19;101322.81;;;13.12;93.56
65758;BME280;52495;52.208;5.158;2022-10-23T01:00:46;101323.69;;;13.12;93.80
65758;BME280;52495;52.208;5.158;2022-10-23T01:03:18;101330.66;;;13.10;93.73
65758;BME280;52495;52.208;5.158;2022-10-23T01:05:48;101325.47;;;13.10;93.56
65758;BME280;52495;52.208;5.158;2022-10-23T01:08:18;101329.78;;;13.11;94.16
65758;BME280;52495;52.208;5.158;2022-10-23T01:10:50;101334.06;;;13.12;93.82
65758;BME280;52495;52.208;5.158;2022-10-23T01:13:20;101327.97;;;13.15;93.82
65758;BME280;52495;52.208;5.158;2022-10-23T01:15:51;101327.19;;;13.11;93.91
65758;BME280;52495;52.208;5.158;2022-10-23T01:18:19;101322.00;;;13.10;93.92
65758;BME280;52495;52.208;5.158;2022-10-23T01:20:49;101323.75;;;13.09;93.50
65758;BME280;52495;52.208;5.158;2022-10-23T01:23:34;101313.41;;;13.08;93.80
65758;BME280;52495;52.208;5.158;2022-10-23T01:26:14;101316.88;;;13.06;94.04
65758;BME280;52495;52.208;5.158;2022-10-23T01:28:51;101316.88;;;13.08;93.91
65758;BME280;52495;52.208;5.158;2022-10-23T01:31:21;101323.72;;;13.11;93.74
65758;BME280;52495;52.208;5.158;2022-10-23T01:33:51;101319.41;;;13.10;93.91
65758;BME280;52495;52.208;5.158;2022-10-23T01:36:25;101315.06;;;13.12;93.42
65758;BME280;52495;52.208;5.158;2022-10-23T01:38:56;101315.97;;;13.09;94.17
65758;BME280;52495;52.208;5.158;2022-10-23T01:41:25;101315.97;;;13.09;93.77
65758;BME280;52495;52.208;5.158;2022-10-23T01:43:55;101308.19;;;13.09;94.15
65758;BME280;52495;52.208;5.158;2022-10-23T01:46:28;101306.44;;;13.10;93.85
65758;BME280;52495;52.208;5.158;2022-10-23T01:48:56;101296.13;;;13.08;94.01
65758;BME280;52495;52.208;5.158;2022-10-23T01:51:24;101296.97;;;13.09;94.29
65758;BME280;52495;52.208;5.158;2022-10-23T01:53:58;101300.44;;;13.09;94.11
65758;BME280;52495;52.208;5.158;2022-10-23T01:56:27;101298.72;;;13.08;94.19
65758;BME280;52495;52.208;5.158;2022-10-23T01:58:58;101293.53;;;13.08;93.82
65758;BME280;52495;52.208;5.158;2022-10-23T02:01:30;101288.34;;;13.06;93.98
65758;BME280;52495;52.208;5.158;2022-10-23T02:03:58;101283.16;;;13.08;94.10
65758;BME280;52495;52.208;5.158;2022-10-23T02:06:26;101277.09;;;13.08;93.75
65758;BME280;52495;52.208;5.158;2022-10-23T02:08:53;101273.69;;;13.07;94.16
65758;BME280;52495;52.208;5.158;2022-10-23T02:11:20;101268.56;;;13.04;93.54
65758;BME280;52495;52.208;5.158;2022-10-23T02:13:48;101264.25;;;13.03;94.00
65758;BME280;52495;52.208;5.158;2022-10-23T02:16:20;101257.34;;;13.02;93.60
65758;BME280;52495;52.208;5.158;2022-10-23T02:18:54;101266.88;;;13.01;93.77
65758;BME280;52495;52.208;5.158;2022-10-23T02:21:26;101263.47;;;12.99;93.51
65758;BME280;52495;52.208;5.158;2022-10-23T02:23:55;101258.28;;;12.99;93.54
65758;BME280;52495;52.208;5.158;2022-10-23T02:26:25;101247.13;;;12.96;93.71
65758;BME280;52495;52.208;5.158;2022-10-23T02:28:55;101241.94;;;12.96;93.53
65758;BME280;52495;52.208;5.158;2022-10-23T02:31:25;101240.25;;;12.95;93.22
65758;BME280;52495;52.208;5.158;2022-10-23T02:33:52;101243.72;;;12.94;93.25
65758;BME280;52495;52.208;5.158;2022-10-23T02:36:18;101248.06;;;12.92;93.82
65758;BME280;52495;52.208;5.158;2022-10-23T02:38:45;101244.59;;;12.93;93.69
65758;BME280;52495;52.208;5.158;2022-10-23T02:41:21;101240.31;;;12.92;93.86
65758;BME280;52495;52.208;5.158;2022-10-23T02:43:56;101239.47;;;12.89;93.84
65758;BME280;52495;52.208;5.158;2022-10-23T02:46:29;101240.25;;;12.93;93.22
65758;BME280;52495;52.208;5.158;2022-10-23T02:49:00;101235.13;;;12.90;93.47
65758;BME280;52495;52.208;5.158;2022-10-23T02:51:31;101243.81;;;12.89;93.46
65758;BME280;52495;52.208;5.158;2022-10-23T02:54:01;101244.69;;;12.88;93.64
65758;BME280;52495;52.208;5.158;2022-10-23T02:56:33;101245.59;;;12.85;93.24
65758;BME280;52495;52.208;5.158;2022-10-23T02:59:05;101243.94;;;12.83;93.41
65758;BME280;52495;52.208;5.158;2022-10-23T03:01:37;101230.22;;;12.78;92.59
65758;BME280;52495;52.208;5.158;2022-10-23T03:04:06;101229.44;;;12.72;92.65
65758;BME280;52495;52.208;5.158;2022-10-23T03:06:39;101222.59;;;12.70;92.93
65758;BME280;52495;52.208;5.158;2022-10-23T03:09:06;101227.81;;;12.67;92.61
65758;BME280;52495;52.208;5.158;2022-10-23T03:11:32;101225.22;;;12.67;93.08
65758;BME280;52495;52.208;5.158;2022-10-23T03:13:59;101215.75;;;12.66;93.39
65758;BME280;52495;52.208;5.158;2022-10-23T03:16:26;101214.03;;;12.65;93.07
65758;BME280;52495;52.208;5.158;2022-10-23T03:18:55;101212.31;;;12.65;93.20
65758;BME280;52495;52.208;5.158;2022-10-23T03:21:24;101208.88;;;12.65;93.37
65758;BME280;52495;52.208;5.158;2022-10-23T03:23:52;101206.28;;;12.65;93.73
65758;BME280;52495;52.208;5.158;2022-10-23T03:26:26;101211.50;;;12.63;93.44
65758;BME280;52495;52.208;5.158;2022-10-23T03:28:53;101213.25;;;12.63;93.58
65758;BME280;52495;52.208;5.158;2022-10-23T03:31:21;101208.06;;;12.63;93.76
65758;BME280;52495;52.208;5.158;2022-10-23T03:33:53;101193.41;;;12.62;93.47
65758;BME280;52495;52.208;5.158;2022-10-23T03:36:21;101193.47;;;12.58;93.44
65758;BME280;52495;52.208;5.158;2022-10-23T03:38:48;101195.22;;;12.56;93.71
65758;BME280;52495;52.208;5.158;2022-10-23T03:41:15;101198.66;;;12.57;93.65
65758;BME280;52495;52.208;5.158;2022-10-23T03:43:42;101196.06;;;12.57;93.66
65758;BME280;52495;52.208;5.158;2022-10-23T03:46:08;101190.03;;;12.56;93.71
65758;BME280;52495;52.208;5.158;2022-10-23T03:48:37;101189.19;;;12.56;93.86
65758;BME280;52495;52.208;5.158;2022-10-23T03:51:05;101181.44;;;12.54;93.78
65758;BME280;52495;52.208;5.158;2022-10-23T03:53:33;101171.97;;;12.53;93.73
65758;BME280;52495;52.208;5.158;2022-10-23T03:56:02;101160.69;;;12.56;93.93
65758;BME280;52495;52.208;5.158;2022-10-23T03:58:28;101155.56;;;12.54;94.23
65758;BME280;52495;52.208;5.158;2022-10-23T04:00:55;101152.84;;;12.59;94.09
65758;BME280;52495;52.208;5.158;2022-10-23T04:03:22;101145.03;;;12.62;93.04
65758;BME280;52495;52.208;5.158;2022-10-23T04:05:50;101137.31;;;12.59;94.17
65758;BME280;52495;52.208;5.158;2022-10-23T04:08:18;101142.50;;;12.59;94.05
65758;BME280;52495;52.208;5.158;2022-10-23T04:10:48;101140.78;;;12.58;94.42
65758;BME280;52495;52.208;5.158;2022-10-23T04:13:22;101138.19;;;12.59;94.34
65758;BME280;52495;52.208;5.158;2022-10-23T04:15:48;101132.97;;;12.61;94.36
65758;BME280;52495;52.208;5.158;2022-10-23T04:18:15;101138.13;;;12.61;94.50
65758;BME280;52495;52.208;5.158;2022-10-23T04:20:42;101122.59;;;12.63;95.01
65758;BME280;52495;52.208;5.158;2022-10-23T04:23:09;101123.41;;;12.63;95.02
65758;BME280;52495;52.208;5.158;2022-10-23T04:25:37;101122.59;;;12.63;94.62
65758;BME280;52495;52.208;5.158;2022-10-23T04:28:04;101110.38;;;12.68;93.60
65758;BME280;52495;52.208;5.158;2022-10-23T04:30:35;101113.88;;;12.65;94.08
65758;BME280;52495;52.208;5.158;2022-10-23T04:33:02;101109.59;;;12.64;94.23
65758;BME280;52495;52.208;5.158;2022-10-23T04:35:29;101111.34;;;12.62;94.10
65758;BME280;52495;52.208;5.158;2022-10-23T04:37:55;101102.75;;;12.60;94.51
65758;BME280;52495;52.208;5.158;2022-10-23T04:40:22;101100.16;;;12.60;94.51
65758;BME280;52495;52.208;5.158;2022-10-23T04:42:51;101107.94;;;12.60;94.42
65758;BME280;52495;52.208;5.158;2022-10-23T04:45:19;101109.66;;;12.61;95.11
65758;BME280;52495;52.208;5.158;2022-10-23T04:47:46;101097.53;;;12.63;94.33
65758;BME280;52495;52.208;5.158;2022-10-23T04:50:12;101096.63;;;12.64;94.34
65758;BME280;52495;52.208;5.158;2022-10-23T04:52:57;101083.63;;;12.66;93.88
65758;BME280;52495;52.208;5.158;2022-10-23T04:55:47;101076.75;;;12.65;93.64
65758;BME280;52495;52.208;5.158;2022-10-23T04:58:20;101084.56;;;12.63;93.92
65758;BME280;52495;52.208;5.158;2022-10-23T05:00:49;101094.97;;;12.62;94.89
65758;BME280;52495;52.208;5.158;2022-10-23T05:03:22;101086.28;;;12.64;94.95
65758;BME280;52495;52.208;5.158;2022-10-23T05:05:50;101085.34;;;12.67;94.61
65758;BME280;52495;52.208;5.158;2022-10-23T05:08:36;101080.16;;;12.68;94.25
65758;BME280;52495;52.208;5.158;2022-10-23T05:11:21;101093.06;;;12.70;93.91
65758;BME280;52495;52.208;5.158;2022-10-23T05:13:51;101092.22;;;12.68;93.98
65758;BME280;52495;52.208;5.158;2022-10-23T05:16:23;101092.22;;;12.68;94.30
65758;BME280;52495;52.208;5.158;2022-10-23T05:18:52;101087.06;;;12.68;94.64
65758;BME280;52495;52.208;5.158;2022-10-23T05:21:19;101087.88;;;12.70;94.67
65758;BME280;52495;52.208;5.158;2022-10-23T05:23:48;101089.63;;;12.68;95.08
65758;BME280;52495;52.208;5.158;2022-10-23T05:26:15;101085.28;;;12.70;95.71
65758;BME280;52495;52.208;5.158;2022-10-23T05:28:44;101084.34;;;12.74;94.71
65758;BME280;52495;52.208;5.158;2022-10-23T05:31:13;101080.88;;;12.73;94.91
65758;BME280;52495;52.208;5.158;2022-10-23T05:33:45;101075.69;;;12.73;95.73
65758;BME280;52495;52.208;5.158;2022-10-23T05:36:12;101077.41;;;12.74;95.66
65758;BME280;52495;52.208;5.158;2022-10-23T05:38:39;101075.63;;;12.77;95.43
65758;BME280;52495;52.208;5.158;2022-10-23T05:41:13;101073.84;;;12.79;95.79
65758;BME280;52495;52.208;5.158;2022-10-23T05:43:40;101063.47;;;12.80;95.73
65758;BME280;52495;52.208;5.158;2022-10-23T05:46:22;101063.44;;;12.82;95.90
65758;BME280;52495;52.208;5.158;2022-10-23T05:49:05;101071.16;;;12.83;96.24
65758;BME280;52495;52.208;5.158;2022-10-23T05:51:52;101067.69;;;12.84;96.13
65758;BME280;52495;52.208;5.158;2022-10-23T05:54:28;101058.94;;;12.88;95.80
65758;BME280;52495;52.208;5.158;2022-10-23T05:57:12;101058.88;;;12.92;94.98
65758;BME280;52495;52.208;5.158;2022-10-23T05:59:46;101062.31;;;12.92;96.08
65758;BME280;52495;52.208;5.158;2022-10-23T06:02:41;101049.34;;;12.92;96.59
65758;BME280;52495;52.208;5.158;2022-10-23T06:05:26;101055.38;;;12.94;96.60
65758;BME280;52495;52.208;5.158;2022-10-23T06:08:14;101062.22;;;12.97;96.82
65758;BME280;52495;52.208;5.158;2022-10-23T06:10:41;101057.00;;;12.98;96.99
65758;BME280;52495;52.208;5.158;2022-10-23T06:13:09;101050.94;;;12.99;96.56
65758;BME280;52495;52.208;5.158;2022-10-23T06:15:35;101049.19;;;13.00;96.81
65758;BME280;52495;52.208;5.158;2022-10-23T06:18:08;101056.94;;;13.01;96.85
65758;BME280;52495;52.208;5.158;2022-10-23T06:20:45;101049.09;;;13.03;96.92
65758;BME280;52495;52.208;5.158;2022-10-23T06:23:20;101032.66;;;13.05;96.22
65758;BME280;52495;52.208;5.158;2022-10-23T06:26:06;101027.47;;;13.05;96.38
65758;BME280;52495;52.208;5.158;2022-10-23T06:28:41;101030.91;;;13.06;96.53
65758;BME280;52495;52.208;5.158;2022-10-23T06:31:09;101034.38;;;13.05;96.49
65758;BME280;52495;52.208;5.158;2022-10-23T06:33:36;101024.81;;;13.07;96.81
65758;BME280;52495;52.208;5.158;2022-10-23T06:36:06;101031.66;;;13.10;95.84
65758;BME280;52495;52.208;5.158;2022-10-23T06:38:37;101024.69;;;13.12;95.16
65758;BME280;52495;52.208;5.158;2022-10-23T06:41:05;101020.34;;;13.14;94.99
65758;BME280;52495;52.208;5.158;2022-10-23T06:43:35;101022.94;;;13.14;95.13
65758;BME280;52495;52.208;5.158;2022-10-23T06:46:11;101015.16;;;13.14;95.53
65758;BME280;52495;52.208;5.158;2022-10-23T06:49:04;101012.63;;;13.11;95.97
65758;BME280;52495;52.208;5.158;2022-10-23T06:51:38;101010.91;;;13.11;95.81
65758;BME280;52495;52.208;5.158;2022-10-23T06:54:09;101009.00;;;13.18;95.77
65758;BME280;52495;52.208;5.158;2022-10-23T06:56:45;101006.47;;;13.15;95.98
65758;BME280;52495;52.208;5.158;2022-10-23T06:59:11;101005.53;;;13.19;96.07
65758;BME280;52495;52.208;5.158;2022-10-23T07:01:38;101004.50;;;13.25;96.08
65758;BME280;52495;52.208;5.158;2022-10-23T07:04:06;101004.56;;;13.23;96.37
65758;BME280;52495;52.208;5.158;2022-10-23T07:06:32;101011.34;;;13.27;96.43
65758;BME280;52495;52.208;5.158;2022-10-23T07:09:00;101008.72;;;13.29;96.70
65758;BME280;52495;52.208;5.158;2022-10-23T07:11:47;101007.88;;;13.28;96.70
65758;BME280;52495;52.208;5.158;2022-10-23T07:14:13;101006.97;;;13.31;96.54
65758;BME280;52495;52.208;5.158;2022-10-23T07:16:40;101004.38;;;13.31;96.51
65758;BME280;52495;52.208;5.158;2022-10-23T07:19:08;101002.47;;;13.36;96.65
65758;BME280;52495;52.208;5.158;2022-10-23T07:22:00;101007.59;;;13.41;96.57
65758;BME280;52495;52.208;5.158;2022-10-23T07:24:28;101007.63;;;13.38;96.80
65758;BME280;52495;52.208;5.158;2022-10-23T07:27:02;101004.16;;;13.39;97.23
65758;BME280;52495;52.208;5.158;2022-10-23T07:29:29;100990.16;;;13.46;97.26
65758;BME280;52495;52.208;5.158;2022-10-23T07:31:56;100996.09;;;13.49;96.79
65758;BME280;52495;52.208;5.158;2022-10-23T07:34:42;100999.56;;;13.50;96.78
65758;BME280;52495;52.208;5.158;2022-10-23T07:37:19;101004.53;;;13.58;96.90
65758;BME280;52495;52.208;5.158;2022-10-23T07:39:47;100997.56;;;13.60;96.94
65758;BME280;52495;52.208;5.158;2022-10-23T07:42:13;100987.94;;;13.63;97.11
65758;BME280;52495;52.208;5.158;2022-10-23T07:44:40;100987.91;;;13.65;96.87
65758;BME280;52495;52.208;5.158;2022-10-23T07:47:07;100984.31;;;13.69;96.92
65758;BME280;52495;52.208;5.158;2022-10-23T07:49:34;100966.97;;;13.71;97.24
65758;BME280;52495;52.208;5.158;2022-10-23T07:52:04;100968.69;;;13.72;97.03
65758;BME280;52495;52.208;5.158;2022-10-23T07:54:50;100967.78;;;13.73;96.93
65758;BME280;52495;52.208;5.158;2022-10-23T07:57:20;100983.28;;;13.76;97.00
65758;BME280;52495;52.208;5.158;2022-10-23T07:59:53;100974.41;;;13.84;97.43
65758;BME280;52495;52.208;5.158;2022-10-23T08:02:22;100985.56;;;13.87;97.07
65758;BME280;52495;52.208;5.158;2022-10-23T08:04:48;100965.56;;;13.91;97.01
65758;BME280;52495;52.208;5.158;2022-10-23T08:07:26;100965.63;;;13.89;96.95
65758;BME280;52495;52.208;5.158;2022-10-23T08:09:56;100962.00;;;13.93;97.24
65758;BME280;52495;52.208;5.158;2022-10-23T08:12:24;100959.31;;;13.98;96.69
65758;BME280;52495;52.208;5.158;2022-10-23T08:14:52;100970.53;;;13.99;96.93
65758;BME280;52495;52.208;5.158;2022-10-23T08:17:19;100962.59;;;14.03;97.23
65758;BME280;52495;52.208;5.158;2022-10-23T08:20:05;100957.22;;;14.09;97.08
65758;BME280;52495;52.208;5.158;2022-10-23T08:22:37;100959.72;;;14.13;97.04
65758;BME280;52495;52.208;5.158;2022-10-23T08:25:06;100952.63;;;14.18;96.52
65758;BME280;52495;52.208;5.158;2022-10-23T08:27:32;100954.47;;;14.16;96.54
65758;BME280;52495;52.208;5.158;2022-10-23T08:29:59;100949.16;;;14.19;96.85
65758;BME280;52495;52.208;5.158;2022-10-23T08:32:27;100940.34;;;14.24;96.33
65758;BME280;52495;52.208;5.158;2022-10-23T08:34:56;100952.44;;;14.25;96.27
65758;BME280;52495;52.208;5.158;2022-10-23T08:37:25;100947.19;;;14.27;96.11
65758;BME280;52495;52.208;5.158;2022-10-23T08:40:01;100946.19;;;14.31;96.18
65758;BME280;52495;52.208;5.158;2022-10-23T08:43:02;100936.53;;;14.35;96.12
65758;BME280;52495;52.208;5.158;2022-10-23T08:45:32;100927.78;;;14.37;96.19
65758;BME280;52495;52.208;5.158;2022-10-23T08:48:09;100914.72;;;14.40;95.73
65758;BME280;52495;52.208;5.158;2022-10-23T08:50:59;100919.88;;;14.42;95.61
65758;BME280;52495;52.208;5.158;2022-10-23T08:53:31;100912.78;;;14.47;95.37
65758;BME280;52495;52.208;5.158;2022-10-23T08:56:02;100905.75;;;14.51;95.30
65758;BME280;52495;52.208;5.158;2022-10-23T08:58:35;100897.94;;;14.51;95.44
65758;BME280;52495;52.208;5.158;2022-10-23T09:01:10;100902.13;;;14.55;95.46
65758;BME280;52495;52.208;5.158;2022-10-23T09:03:43;100902.75;;;14.62;94.91
65758;BME280;52495;52.208;5.158;2022-10-23T09:06:12;100901.13;;;14.59;95.30
65758;BME280;52495;52.208;5.158;2022-10-23T09:08:43;100900.16;;;14.62;94.80
65758;BME280;52495;52.208;5.158;2022-10-23T09:11:14;100888.78;;;14.66;95.04
65758;BME280;52495;52.208;5.158;2022-10-23T09:13:56;100890.34;;;14.71;94.99
65758;BME280;52495;52.208;5.158;2022-10-23T09:16:31;100887.63;;;14.76;94.91
65758;BME280;52495;52.208;5.158;2022-10-23T09:19:04;100883.16;;;14.80;94.97
65758;BME280;52495;52.208;5.158;2022-10-23T09:21:35;100870.97;;;14.82;94.44
65758;BME280;52495;52.208;5.158;2022-10-23T09:24:02;100869.94;;;14.86;94.55
65758;BME280;52495;52.208;5.158;2022-10-23T09:26:28;100873.28;;;14.90;94.27
65758;BME280;52495;52.208;5.158;2022-10-23T09:29:01;100874.88;;;14.94;94.42
65758;BME280;52495;52.208;5.158;2022-10-23T09:31:31;100877.41;;;14.95;94.28
65758;BME280;52495;52.208;5.158;2022-10-23T09:33:58;100874.72;;;14.98;94.36
65758;BME280;52495;52.208;5.158;2022-10-23T09:36:25;100871.16;;;15.01;94.11
65758;BME280;52495;52.208;5.158;2022-10-23T09:38:54;100853.56;;;15.08;93.51
65758;BME280;52495;52.208;5.158;2022-10-23T09:41:21;100845.03;;;15.04;93.11
65758;BME280;52495;52.208;5.158;2022-10-23T09:44:00;100854.47;;;15.07;92.83
65758;BME280;52495;52.208;5.158;2022-10-23T09:46:35;100852.75;;;15.07;92.97
65758;BME280;52495;52.208;5.158;2022-10-23T09:49:02;100851.84;;;15.08;92.88
65758;BME280;52495;52.208;5.158;2022-10-23T09:51:28;100850.25;;;15.04;92.38
65758;BME280;52495;52.208;5.158;2022-10-23T09:53:55;100844.97;;;15.06;92.54
65758;BME280;52495;52.208;5.158;2022-10-23T09:56:23;100838.03;;;15.06;92.81
65758;BME280;52495;52.208;5.158;2022-10-23T09:58:51;100843.13;;;15.09;92.34
65758;BME280;52495;52.208;5.158;2022-10-23T10:01:24;100845.03;;;15.04;92.21
65758;BME280;52495;52.208;5.158;2022-10-23T10:03:54;100826.63;;;15.10;92.76
65758;BME280;52495;52.208;5.158;2022-10-23T10:06:24;100826.63;;;15.10;92.59
65758;BME280;52495;52.208;5.158;2022-10-23T10:08:52;100838.78;;;15.10;92.68
65758;BME280;52495;52.208;5.158;2022-10-23T10:11:19;100824.66;;;15.17;92.52
65758;BME280;52495;52.208;5.158;2022-10-23T10:13:53;100822.78;;;15.21;92.22
65758;BME280;52495;52.208;5.158;2022-10-23T10:16:28;100821.19;;;15.16;92.39
65758;BME280;52495;52.208;5.158;2022-10-23T10:18:57;100829.69;;;15.22;92.39
65758;BME280;52495;52.208;5.158;2022-10-23T10:21:26;100828.78;;;15.23;92.30
65758;BME280;52495;52.208;5.158;2022-10-23T10:23:55;100814.69;;;15.28;92.39
65758;BME280;52495;52.208;5.158;2022-10-23T10:26:27;100812.78;;;15.33;92.33
65758;BME280;52495;52.208;5.158;2022-10-23T10:31:47;100798.56;;;15.42;91.86
65758;BME280;52495;52.208;5.158;2022-10-23T10:34:20;100796.75;;;15.44;91.81
65758;BME280;52495;52.208;5.158;2022-10-23T10:36:48;100785.44;;;15.45;91.34
65758;BME280;52495;52.208;5.158;2022-10-23T10:39:30;100783.44;;;15.52;91.05
65758;BME280;52495;52.208;5.158;2022-10-23T10:42:21;100775.66;;;15.52;90.96
65758;BME280;52495;52.208;5.158;2022-10-23T10:44:52;100761.66;;;15.55;90.90
65758;BME280;52495;52.208;5.158;2022-10-23T10:47:27;100756.38;;;15.56;91.08
65758;BME280;52495;52.208;5.158;2022-10-23T10:50:02;100762.38;;;15.58;90.91
65758;BME280;52495;52.208;5.158;2022-10-23T10:52:42;100756.22;;;15.61;90.92
65758;BME280;52495;52.208;5.158;2022-10-23T10:55:13;100753.47;;;15.64;90.78
65758;BME280;52495;52.208;5.158;2022-10-23T10:57:43;100752.53;;;15.67;90.81
65758;BME280;52495;52.208;5.158;2022-10-23T11:00:13;100747.06;;;15.73;90.66
65758;BME280;52495;52.208;5.158;2022-10-23T11:02:42;100749.53;;;15.76;90.23
65758;BME280;52495;52.208;5.158;2022-10-23T11:05:15;100741.72;;;15.76;90.31
65758;BME280;52495;52.208;5.158;2022-10-23T11:07:47;100726.00;;;15.79;90.29
65758;BME280;52495;52.208;5.158;2022-10-23T11:10:16;100726.66;;;15.84;90.04
65758;BME280;52495;52.208;5.158;2022-10-23T11:12:43;100719.50;;;15.89;90.10
65758;BME280;52495;52.208;5.158;2022-10-23T11:15:11;100710.75;;;15.92;90.06
65758;BME280;52495;52.208;5.158;2022-10-23T11:17:38;100717.66;;;15.93;90.19
65758;BME280;52495;52.208;5.158;2022-10-23T11:20:09;100700.00;;;16.00;90.20
65758;BME280;52495;52.208;5.158;2022-10-23T11:22:42;100694.50;;;16.06;89.99
65758;BME280;52495;52.208;5.158;2022-10-23T11:25:25;100689.06;;;16.12;89.98
65758;BME280;52495;52.208;5.158;2022-10-23T11:28:05;100686.97;;;16.20;89.58
65758;BME280;52495;52.208;5.158;2022-10-23T11:30:34;100671.84;;;16.29;88.45
65758;BME280;52495;52.208;5.158;2022-10-23T11:33:26;100662.06;;;16.34;87.60
65758;BME280;52495;52.208;5.158;2022-10-23T11:36:03;100662.78;;;16.37;87.58
65758;BME280;52495;52.208;5.158;2022-10-23T11:38:31;100653.13;;;16.39;87.59
65758;BME280;52495;52.208;5.158;2022-10-23T11:40:59;100651.97;;;16.47;86.80
65758;BME280;52495;52.208;5.158;2022-10-23T11:43:28;100653.56;;;16.49;86.16
65758;BME280;52495;52.208;5.158;2022-10-23T11:45:55;100653.31;;;16.56;86.50
65758;BME280;52495;52.208;5.158;2022-10-23T11:48:22;100647.75;;;16.63;86.40
65758;BME280;52495;52.208;5.158;2022-10-23T11:50:50;100628.97;;;16.74;85.51
65758;BME280;52495;52.208;5.158;2022-10-23T11:53:36;100627.88;;;16.80;85.13
65758;BME280;52495;52.208;5.158;2022-10-23T11:56:04;100621.56;;;16.84;85.20
65758;BME280;52495;52.208;5.158;2022-10-23T11:58:41;100619.53;;;16.91;85.00
65758;BME280;52495;52.208;5.158;2022-10-23T12:03:54;100614.16;;;17.13;84.57
65758;BME280;52495;52.208;5.158;2022-10-23T12:06:24;100599.06;;;17.20;84.21
65758;BME280;52495;52.208;5.158;2022-10-23T12:08:53;100600.44;;;17.27;83.79
65758;BME280;52495;52.208;5.158;2022-10-23T12:11:25;100612.25;;;17.34;83.87
65758;BME280;52495;52.208;5.158;2022-10-23T12:13:52;100599.66;;;17.42;83.46
65758;BME280;52495;52.208;5.158;2022-10-23T12:16:19;100591.63;;;17.47;82.98
65758;BME280;52495;52.208;5.158;2022-10-23T12:18:46;100596.53;;;17.53;82.55
65758;BME280;52495;52.208;5.158;2022-10-23T12:21:14;100587.72;;;17.56;81.48
65758;BME280;52495;52.208;5.158;2022-10-23T12:23:51;100580.66;;;17.58;81.48
65758;BME280;52495;52.208;5.158;2022-10-23T12:26:40;100575.09;;;17.64;81.19
65758;BME280;52495;52.208;5.158;2022-10-23T12:29:10;100566.34;;;17.65;81.67
65758;BME280;52495;52.208;5.158;2022-10-23T12:31:44;100549.59;;;17.69;81.03
65758;BME280;52495;52.208;5.158;2022-10-23T12:34:23;100540.00;;;17.70;80.22
65758;BME280;52495;52.208;5.158;2022-10-23T12:37:02;100540.69;;;17.73;80.57
65758;BME280;52495;52.208;5.158;2022-10-23T12:39:34;100555.50;;;17.73;80.71
65758;BME280;52495;52.208;5.158;2022-10-23T12:42:03;100547.75;;;17.71;79.63
65758;BME280;52495;52.208;5.158;2022-10-23T12:44:31;100539.59;;;17.78;80.19
65758;BME280;52495;52.208;5.158;2022-10-23T12:46:59;100545.50;;;17.81;79.67
65758;BME280;52495;52.208;5.158;2022-10-23T12:49:27;100541.13;;;17.82;79.62
65758;BME280;52495;52.208;5.158;2022-10-23T12:51:57;100535.06;;;17.81;79.39
65758;BME280;52495;52.208;5.158;2022-10-23T12:54:23;100537.53;;;17.84;79.16
65758;BME280;52495;52.208;5.158;2022-10-23T12:56:50;100529.50;;;17.87;78.74
65758;BME280;52495;52.208;5.158;2022-10-23T12:59:19;100526.22;;;17.84;79.25
65758;BME280;52495;52.208;5.158;2022-10-23T13:01:47;100518.28;;;17.85;78.45
65758;BME280;52495;52.208;5.158;2022-10-23T13:04:16;100513.06;;;17.85;78.69
65758;BME280;52495;52.208;5.158;2022-10-23T13:06:46;100515.63;;;17.87;78.17
65758;BME280;52495;52.208;5.158;2022-10-23T13:09:16;100512.06;;;17.88;78.08
65758;BME280;52495;52.208;5.158;2022-10-23T13:11:55;100509.13;;;17.94;78.55
65758;BME280;52495;52.208;5.158;2022-10-23T13:14:32;100502.84;;;17.98;78.48
65758;BME280;52495;52.208;5.158;2022-10-23T13:17:01;100494.19;;;17.98;77.68